YPRE weather

Premer Betoota Airport
New South Wales, Australia

Public forecast

Using degrees Celsius for public forecast. Weather courtesy of forecast.io.

Closest aviation weather report (METAR) to Premer Betoota Airport

Closest report is Coonabarabran Airport, 33.7 nm (62.5 km) WNW. Retrieved 2020/07/06 18:00 UTC (19 minutes ago):

YCBB 061800Z AUTO 21006KT 9999 // NCD 06/05 Q1026

Closest aviation forecast (TAF) to Premer Betoota Airport

Closest forecast is Tamworth Airport, 53.9 nm (99.8 km) ENE. Retrieved 2020/07/06 18:48 UTC (0 seconds ago):

TAF YSTW 061735Z 0618/0712 13005KT CAVOK PROB30 0618/0623 0300 FG BKN001